createdAt,value
2019-02-20T00:00:26.084Z,96.80
2019-02-20T00:02:55.609Z,97.20
2019-02-20T00:05:25.225Z,97.20
2019-02-20T00:07:54.704Z,97.30
2019-02-20T00:10:24.218Z,97.30
2019-02-20T00:12:54.245Z,97.20
2019-02-20T00:15:23.697Z,97.30
2019-02-20T00:17:53.384Z,97.10
2019-02-20T00:20:22.913Z,97.20
2019-02-20T00:22:52.416Z,97.10
2019-02-20T00:25:21.933Z,97.00
2019-02-20T00:27:51.402Z,96.90
2019-02-20T00:30:21.014Z,96.70
2019-02-20T00:32:50.618Z,96.50
2019-02-20T00:35:20.264Z,96.70
2019-02-20T00:37:49.738Z,96.90
2019-02-20T00:40:19.304Z,97.10
2019-02-20T00:42:48.813Z,97.30
2019-02-20T00:45:36.070Z,97.40
2019-02-20T00:48:13.425Z,97.60
2019-02-20T00:50:43.261Z,97.60
2019-02-20T00:53:26.019Z,97.70
2019-02-20T00:55:55.586Z,97.80
2019-02-20T00:58:25.068Z,97.90
2019-02-20T01:00:54.583Z,98.10
2019-02-20T01:03:24.090Z,98.10
2019-02-20T01:05:53.566Z,98.00
2019-02-20T01:08:23.034Z,98.00
2019-02-20T01:10:52.754Z,97.90
2019-02-20T01:13:22.354Z,97.70
2019-02-20T01:15:52.751Z,97.70
2019-02-20T01:18:22.570Z,97.50
2019-02-20T01:20:52.093Z,97.30
2019-02-20T01:23:21.589Z,97.10
2019-02-20T01:25:51.272Z,97.00
2019-02-20T01:28:20.775Z,97.20
2019-02-20T01:30:50.554Z,97.00
2019-02-20T01:33:20.049Z,97.10
2019-02-20T01:35:49.542Z,96.90
2019-02-20T01:38:19.262Z,96.80
2019-02-20T01:40:48.750Z,96.70
2019-02-20T01:43:18.256Z,97.00
2019-02-20T01:45:47.766Z,97.10
2019-02-20T01:48:17.245Z,97.10
2019-02-20T01:50:46.730Z,97.10
2019-02-20T01:53:16.236Z,97.20
2019-02-20T01:55:45.742Z,97.30
2019-02-20T01:58:15.234Z,97.70
2019-02-20T02:00:45.040Z,97.50
2019-02-20T02:03:14.537Z,97.50
2019-02-20T02:05:44.064Z,97.60
2019-02-20T02:08:13.669Z,97.70
2019-02-20T02:10:43.161Z,97.70
2019-02-20T02:13:12.636Z,97.70
2019-02-20T02:15:43.547Z,97.80
2019-02-20T02:18:13.043Z,97.80
2019-02-20T02:20:42.887Z,97.70
2019-02-20T02:23:19.648Z,97.70
2019-02-20T02:25:43.538Z,97.70
2019-02-20T02:28:13.483Z,97.70
2019-02-20T02:30:42.996Z,97.80
2019-02-20T02:33:12.626Z,97.60
2019-02-20T02:35:42.152Z,97.80
2019-02-20T02:38:11.638Z,97.80
2019-02-20T02:40:41.113Z,97.90
2019-02-20T02:43:10.724Z,97.80
2019-02-20T02:45:40.204Z,97.80
2019-02-20T02:48:10.435Z,97.80
2019-02-20T02:50:39.907Z,97.70
2019-02-20T02:53:09.509Z,97.80
2019-02-20T02:55:39.030Z,97.60
2019-02-20T02:58:08.513Z,97.60
2019-02-20T03:00:38.087Z,97.60
2019-02-20T03:03:07.639Z,97.70
2019-02-20T03:05:37.109Z,97.70
2019-02-20T03:08:06.813Z,97.60
2019-02-20T03:10:36.297Z,97.60
2019-02-20T03:13:05.781Z,97.60
2019-02-20T03:15:35.461Z,97.40
2019-02-20T03:18:04.959Z,97.80
2019-02-20T03:20:34.639Z,97.40
2019-02-20T03:23:04.146Z,97.20
2019-02-20T03:25:33.622Z,97.30
2019-02-20T03:28:03.109Z,97.20
2019-02-20T03:30:32.778Z,97.20
2019-02-20T03:33:02.238Z,97.30
2019-02-20T03:35:31.779Z,97.20
2019-02-20T03:38:03.385Z,97.40
2019-02-20T03:40:32.857Z,97.40
2019-02-20T03:43:04.694Z,97.30
2019-02-20T03:45:34.153Z,97.30
2019-02-20T03:48:03.709Z,97.30
2019-02-20T03:50:33.370Z,97.20
2019-02-20T03:53:02.860Z,97.20
2019-02-20T03:55:32.743Z,97.20
2019-02-20T03:58:03.358Z,97.30
2019-02-20T04:00:32.972Z,97.10
2019-02-20T04:03:02.468Z,97.20
2019-02-20T04:05:31.966Z,97.20
2019-02-20T04:08:01.826Z,97.10
2019-02-20T04:10:33.374Z,97.30
2019-02-20T04:13:03.024Z,97.20
2019-02-20T04:15:32.517Z,97.30
2019-02-20T04:18:02.022Z,97.30
2019-02-20T04:20:31.863Z,97.40
2019-02-20T04:23:03.804Z,97.40
2019-02-20T04:25:33.289Z,97.70
2019-02-20T04:28:02.820Z,97.60
2019-02-20T04:30:34.545Z,97.50
2019-02-20T04:33:04.071Z,97.70
2019-02-20T04:35:33.802Z,97.80
2019-02-20T04:38:03.280Z,97.70
2019-02-20T04:40:32.788Z,97.70
2019-02-20T04:43:04.512Z,97.50
2019-02-20T04:45:34.030Z,97.70
2019-02-20T04:48:03.594Z,97.70
2019-02-20T04:50:33.087Z,97.30
2019-02-20T04:53:02.904Z,97.30
2019-02-20T04:55:32.610Z,97.30
2019-02-20T04:58:20.297Z,97.10
2019-02-20T05:00:49.847Z,97.00
2019-02-20T05:03:19.323Z,96.90
2019-02-20T05:05:48.991Z,96.70
2019-02-20T05:08:20.066Z,96.50
2019-02-20T05:10:49.557Z,96.40
2019-02-20T05:13:19.072Z,96.40
2019-02-20T05:15:48.977Z,96.40
2019-02-20T05:18:18.641Z,96.30
2019-02-20T05:20:48.260Z,96.20
2019-02-20T05:23:17.740Z,96.10
2019-02-20T05:25:47.226Z,96.00
2019-02-20T05:28:16.994Z,96.00
2019-02-20T05:30:46.524Z,96.10
2019-02-20T05:33:16.031Z,96.20
2019-02-20T05:35:45.561Z,96.40
2019-02-20T05:38:15.030Z,96.40
2019-02-20T05:40:44.524Z,96.30
2019-02-20T05:43:14.146Z,96.30
2019-02-20T05:45:43.678Z,96.50
2019-02-20T05:48:13.181Z,96.50
2019-02-20T05:50:42.713Z,96.50
2019-02-20T05:53:12.187Z,96.60
2019-02-20T05:55:41.712Z,96.50
2019-02-20T05:58:11.587Z,96.50
2019-02-20T06:00:41.095Z,96.50
2019-02-20T06:03:10.933Z,96.30
2019-02-20T06:05:40.450Z,96.20
2019-02-20T06:08:09.957Z,96.30
2019-02-20T06:10:39.529Z,96.40
2019-02-20T06:13:09.041Z,96.60
2019-02-20T06:15:38.577Z,96.60
2019-02-20T06:18:08.157Z,96.50
2019-02-20T06:20:37.669Z,96.40
2019-02-20T06:23:07.149Z,96.40
2019-02-20T06:25:36.865Z,96.40
2019-02-20T06:28:06.357Z,96.60
2019-02-20T06:30:35.859Z,96.60
2019-02-20T06:33:05.388Z,96.70
2019-02-20T06:35:34.894Z,96.80
2019-02-20T06:38:04.402Z,96.60
2019-02-20T06:40:34.097Z,96.50
2019-02-20T06:43:03.591Z,96.20
2019-02-20T06:45:33.413Z,96.20
2019-02-20T06:48:02.901Z,96.20
2019-02-20T06:50:32.389Z,96.10
2019-02-20T06:53:02.414Z,96.10
2019-02-20T06:55:33.216Z,95.90
2019-02-20T06:58:03.078Z,96.00
2019-02-20T07:00:35.139Z,95.90
2019-02-20T07:03:04.963Z,95.50
2019-02-20T07:05:36.451Z,95.80
2019-02-20T07:08:35.961Z,95.50
2019-02-20T07:11:32.081Z,95.50
2019-02-20T07:14:41.438Z,95.50
2019-02-20T07:17:52.456Z,95.50
2019-02-20T07:21:21.179Z,95.00
2019-02-20T07:24:27.843Z,95.00
2019-02-20T07:27:41.150Z,94.80
2019-02-20T07:30:11.397Z,94.50
2019-02-20T07:32:42.509Z,94.30
2019-02-20T07:35:12.537Z,93.70
2019-02-20T07:37:42.494Z,93.50
2019-02-20T07:40:13.257Z,93.40
2019-02-20T07:42:42.779Z,93.40
2019-02-20T07:45:15.071Z,92.90
2019-02-20T07:47:44.702Z,92.30
2019-02-20T07:50:16.919Z,92.20
2019-02-20T07:52:46.535Z,91.80
2019-02-20T07:55:16.028Z,91.60
2019-02-20T07:57:45.710Z,91.20
2019-02-20T08:00:15.975Z,91.10
2019-02-20T08:02:45.541Z,90.70
2019-02-20T08:05:15.435Z,90.70
2019-02-20T08:07:44.897Z,90.90
2019-02-20T08:10:14.485Z,91.00
2019-02-20T08:12:44.068Z,91.70
2019-02-20T08:15:13.606Z,91.40
2019-02-20T08:17:43.119Z,91.20
2019-02-20T08:20:12.871Z,90.90
2019-02-20T08:22:42.413Z,90.50
2019-02-20T08:25:12.397Z,90.00
2019-02-20T08:27:41.906Z,90.10
2019-02-20T08:30:14.110Z,89.40
2019-02-20T08:32:43.713Z,88.80
2019-02-20T08:35:13.870Z,87.50
2019-02-20T08:37:43.350Z,87.90
2019-02-20T08:40:14.793Z,88.40
2019-02-20T08:42:44.593Z,87.50
2019-02-20T08:45:14.237Z,87.10
2019-02-20T08:47:43.952Z,86.70
2019-02-20T08:50:14.119Z,87.50
2019-02-20T08:52:43.650Z,86.50
2019-02-20T08:55:13.144Z,84.40
2019-02-20T08:57:42.692Z,83.50
2019-02-20T09:00:13.805Z,81.20
2019-02-20T09:02:43.273Z,81.20
2019-02-20T09:05:12.776Z,80.30
2019-02-20T09:07:42.429Z,80.70
2019-02-20T09:10:11.925Z,80.60
2019-02-20T09:12:41.426Z,80.20
2019-02-20T09:15:11.243Z,79.70
2019-02-20T09:17:40.727Z,78.60
2019-02-20T09:20:11.437Z,79.70
2019-02-20T09:22:40.989Z,80.40
2019-02-20T09:25:19.247Z,81.10
2019-02-20T09:27:42.345Z,80.60
2019-02-20T09:30:13.278Z,81.70
2019-02-20T09:32:42.783Z,79.90
2019-02-20T09:35:12.344Z,78.70
2019-02-20T09:37:41.948Z,78.60
2019-02-20T09:40:13.982Z,77.70
2019-02-20T09:42:45.390Z,77.60
2019-02-20T09:45:14.829Z,77.90
2019-02-20T09:47:44.598Z,78.40
2019-02-20T09:50:14.359Z,80.20
2019-02-20T09:52:51.924Z,81.70
2019-02-20T09:55:15.305Z,82.40
2019-02-20T09:57:44.830Z,82.50
2019-02-20T10:00:15.261Z,82.20
2019-02-20T10:02:44.853Z,82.70
2019-02-20T10:05:14.337Z,83.00
2019-02-20T10:07:43.859Z,83.30
2019-02-20T10:10:13.457Z,82.60
2019-02-20T10:12:42.924Z,81.30
2019-02-20T10:15:12.395Z,81.20
2019-02-20T10:17:41.881Z,79.30
2019-02-20T10:20:11.542Z,78.10
2019-02-20T10:22:41.060Z,76.50
2019-02-20T10:25:10.952Z,76.50
2019-02-20T10:27:40.425Z,75.40
2019-02-20T10:30:13.223Z,75.10
2019-02-20T10:32:42.703Z,73.40
2019-02-20T10:35:12.847Z,72.90
2019-02-20T10:37:42.365Z,73.50
2019-02-20T10:40:12.018Z,75.40
2019-02-20T10:42:41.510Z,75.60
2019-02-20T10:45:11.121Z,75.80
2019-02-20T10:47:40.685Z,77.00
2019-02-20T10:50:10.368Z,76.90
2019-02-20T10:52:40.184Z,77.80
2019-02-20T10:55:09.758Z,78.50
2019-02-20T10:57:39.334Z,78.90
2019-02-20T11:00:23.481Z,80.50
2019-02-20T11:02:46.149Z,81.50
2019-02-20T11:05:15.988Z,81.20
2019-02-20T11:07:45.575Z,80.30
2019-02-20T11:10:15.284Z,79.30
2019-02-20T11:12:44.771Z,78.40
2019-02-20T11:15:14.237Z,78.60
2019-02-20T11:17:43.961Z,78.30
2019-02-20T11:20:13.833Z,78.00
2019-02-20T11:22:43.471Z,77.20
2019-02-20T11:25:12.992Z,77.30
2019-02-20T11:27:42.740Z,77.40
2019-02-20T11:30:15.665Z,78.80
2019-02-20T11:32:45.247Z,77.90
2019-02-20T11:35:14.700Z,78.70
2019-02-20T11:37:44.222Z,78.60
2019-02-20T11:40:14.807Z,78.10
2019-02-20T11:42:44.300Z,78.70
2019-02-20T11:45:13.784Z,77.90
2019-02-20T11:47:43.426Z,77.20
2019-02-20T11:50:13.033Z,77.40
2019-02-20T11:52:42.980Z,75.80
2019-02-20T11:55:12.474Z,75.30
2019-02-20T11:57:42.127Z,76.20
2019-02-20T12:00:12.483Z,76.00
2019-02-20T12:02:42.283Z,75.40
2019-02-20T12:05:11.968Z,74.70
2019-02-20T12:07:41.445Z,74.70
2019-02-20T12:10:12.770Z,73.60
2019-02-20T12:12:42.683Z,74.10
2019-02-20T12:15:12.208Z,74.60
2019-02-20T12:17:41.979Z,73.30
2019-02-20T12:20:11.752Z,73.40
2019-02-20T12:22:41.324Z,73.80
2019-02-20T12:25:10.880Z,73.90
2019-02-20T12:27:40.281Z,73.90
2019-02-20T12:30:09.928Z,74.10
2019-02-20T12:32:39.386Z,74.50
2019-02-20T12:35:09.508Z,74.90
2019-02-20T12:37:39.023Z,75.30
2019-02-20T12:40:09.020Z,75.90
2019-02-20T12:42:39.408Z,76.10
2019-02-20T12:45:09.366Z,76.40
2019-02-20T12:47:38.820Z,76.40
2019-02-20T12:50:08.569Z,77.30
2019-02-20T12:52:38.097Z,77.90
2019-02-20T12:55:08.009Z,78.20
2019-02-20T12:57:37.554Z,80.20
2019-02-20T13:00:09.422Z,79.30
2019-02-20T13:02:38.928Z,80.80
2019-02-20T13:05:09.015Z,80.30
2019-02-20T13:07:38.517Z,80.30
2019-02-20T13:10:09.141Z,80.60
2019-02-20T13:12:38.615Z,79.60
2019-02-20T13:15:08.182Z,79.80
2019-02-20T13:17:38.017Z,79.30
2019-02-20T13:20:07.513Z,78.50
2019-02-20T13:22:37.213Z,78.40
2019-02-20T13:25:07.026Z,78.30
2019-02-20T13:27:36.771Z,77.20
2019-02-20T13:30:06.567Z,78.40
2019-02-20T13:32:36.130Z,79.00
2019-02-20T13:35:06.169Z,79.80
2019-02-20T13:37:35.654Z,81.00
2019-02-20T13:40:05.409Z,80.60
2019-02-20T13:42:34.993Z,80.90
2019-02-20T13:45:05.046Z,81.40
2019-02-20T13:47:34.593Z,82.00
2019-02-20T13:50:04.578Z,82.50
2019-02-20T13:52:34.045Z,83.10
2019-02-20T13:55:06.050Z,82.90
2019-02-20T13:57:35.424Z,83.10
2019-02-20T14:00:05.001Z,83.50
2019-02-20T14:02:34.926Z,83.80
2019-02-20T14:05:04.463Z,83.40
2019-02-20T14:07:34.082Z,83.50
2019-02-20T14:10:03.725Z,83.50
2019-02-20T14:12:33.464Z,82.70
2019-02-20T14:15:03.537Z,82.50
2019-02-20T14:17:32.996Z,82.80
2019-02-20T14:20:02.462Z,83.10
2019-02-20T14:22:32.142Z,83.20
2019-02-20T14:25:03.028Z,83.20
2019-02-20T14:27:32.666Z,83.40
2019-02-20T14:30:02.182Z,82.40
2019-02-20T14:32:31.641Z,82.90
2019-02-20T14:35:01.306Z,82.30
2019-02-20T14:37:31.992Z,81.70
2019-02-20T14:40:01.818Z,82.00
2019-02-20T14:42:31.338Z,81.80
2019-02-20T14:45:01.275Z,81.80
2019-02-20T14:47:30.747Z,81.80
2019-02-20T14:50:00.586Z,82.00
2019-02-20T14:52:30.160Z,82.10
2019-02-20T14:55:00.021Z,82.70
2019-02-20T14:57:29.568Z,82.40
2019-02-20T14:59:59.129Z,81.50
2019-02-20T15:02:29.995Z,81.60
2019-02-20T15:04:59.937Z,81.60
2019-02-20T15:07:29.412Z,82.00
2019-02-20T15:09:59.260Z,82.30
2019-02-20T15:12:28.725Z,82.80
2019-02-20T15:14:58.274Z,83.30
2019-02-20T15:17:27.872Z,83.50
2019-02-20T15:19:57.416Z,83.70
2019-02-20T15:22:27.430Z,83.00
2019-02-20T15:24:57.436Z,83.30
2019-02-20T15:27:28.884Z,84.20
2019-02-20T15:29:58.102Z,84.60
2019-02-20T15:32:27.628Z,85.40
2019-02-20T15:34:57.338Z,84.50
2019-02-20T15:37:26.998Z,84.00
2019-02-20T15:39:56.759Z,83.90
2019-02-20T15:42:26.230Z,83.70
2019-02-20T15:44:55.732Z,83.00
2019-02-20T15:47:25.384Z,82.10
2019-02-20T15:49:54.897Z,82.00
2019-02-20T15:52:24.698Z,81.30
2019-02-20T15:54:55.086Z,81.30
2019-02-20T15:57:24.560Z,81.30
2019-02-20T15:59:54.077Z,81.40
2019-02-20T16:02:23.629Z,81.80
2019-02-20T16:04:53.073Z,81.50
2019-02-20T16:07:22.569Z,81.50
2019-02-20T16:09:52.411Z,82.00
2019-02-20T16:12:21.933Z,82.00
2019-02-20T16:14:52.608Z,81.80
2019-02-20T16:17:22.217Z,81.80
2019-02-20T16:19:51.949Z,82.00
2019-02-20T16:22:21.514Z,81.90
2019-02-20T16:24:51.526Z,81.80
2019-02-20T16:27:21.007Z,81.80
2019-02-20T16:29:50.518Z,82.30
2019-02-20T16:32:20.117Z,82.30
2019-02-20T16:34:49.606Z,80.10
2019-02-20T16:37:19.097Z,80.20
2019-02-20T16:39:49.810Z,79.70
2019-02-20T16:42:19.297Z,79.60
2019-02-20T16:44:49.002Z,80.00
2019-02-20T16:47:18.638Z,80.10
2019-02-20T16:49:48.183Z,80.70
2019-02-20T16:52:17.868Z,81.60
2019-02-20T16:54:47.927Z,82.20
2019-02-20T16:57:17.418Z,82.80
2019-02-20T16:59:46.936Z,83.00
2019-02-20T17:02:16.863Z,83.40
2019-02-20T17:04:46.848Z,83.40
2019-02-20T17:07:16.334Z,84.00
2019-02-20T17:09:46.278Z,83.90
2019-02-20T17:12:15.778Z,84.00
2019-02-20T17:14:45.390Z,84.30
2019-02-20T17:17:14.969Z,84.60
2019-02-20T17:19:44.516Z,85.10
2019-02-20T17:22:14.022Z,85.70
2019-02-20T17:24:43.940Z,86.30
2019-02-20T17:27:13.534Z,86.40
2019-02-20T17:29:43.089Z,86.60
2019-02-20T17:32:12.541Z,87.10
2019-02-20T17:34:42.002Z,87.40
2019-02-20T17:37:11.640Z,87.40
2019-02-20T17:39:41.359Z,86.90
2019-02-20T17:42:11.068Z,87.20
2019-02-20T17:44:42.133Z,87.80
2019-02-20T17:47:11.777Z,88.40
2019-02-20T17:49:41.271Z,88.40
2019-02-20T17:52:10.834Z,88.60
2019-02-20T17:54:42.294Z,89.00
2019-02-20T17:57:12.070Z,89.40
2019-02-20T17:59:41.545Z,89.50
2019-02-20T18:02:11.160Z,89.90
2019-02-20T18:04:40.801Z,90.10
2019-02-20T18:07:10.295Z,90.20
2019-02-20T18:09:39.834Z,90.50
2019-02-20T18:12:09.570Z,90.60
2019-02-20T18:14:39.139Z,90.60
2019-02-20T18:17:09.056Z,90.60
2019-02-20T18:19:38.708Z,90.80
2019-02-20T18:22:08.289Z,90.90
2019-02-20T18:24:37.778Z,91.00
2019-02-20T18:27:07.668Z,90.80
2019-02-20T18:29:39.198Z,90.80
2019-02-20T18:32:08.684Z,91.00
2019-02-20T18:34:38.259Z,91.00
2019-02-20T18:37:07.751Z,90.90
2019-02-20T18:39:37.254Z,90.90
2019-02-20T18:42:07.117Z,91.20
2019-02-20T18:44:36.591Z,91.10
2019-02-20T18:47:07.625Z,91.00
2019-02-20T18:49:38.888Z,91.10
2019-02-20T18:52:08.690Z,91.10
2019-02-20T18:54:38.207Z,91.30
2019-02-20T18:57:07.730Z,91.30
2019-02-20T18:59:37.321Z,91.40
2019-02-20T19:02:07.113Z,91.40
2019-02-20T19:04:36.734Z,91.60
2019-02-20T19:07:14.129Z,91.60
2019-02-20T19:09:46.866Z,91.80
2019-02-20T19:13:15.776Z,91.70
2019-02-20T19:16:05.993Z,91.90
2019-02-20T19:19:02.428Z,92.00
2019-02-20T19:22:02.637Z,92.10
2019-02-20T19:25:13.596Z,92.20
2019-02-20T19:27:57.509Z,92.10
2019-02-20T19:30:57.128Z,92.30
2019-02-20T19:34:10.793Z,92.30
2019-02-20T19:37:17.570Z,92.40
2019-02-20T19:40:46.501Z,92.40
2019-02-20T19:44:12.449Z,92.30
2019-02-20T19:47:05.587Z,92.50
2019-02-20T19:50:03.817Z,92.40
2019-02-20T19:53:01.389Z,92.40
2019-02-20T19:56:26.122Z,92.40
2019-02-20T19:59:31.339Z,92.40
2019-02-20T20:02:47.769Z,92.40
2019-02-20T20:05:54.170Z,92.80
2019-02-20T20:09:13.740Z,92.40
2019-02-20T20:12:30.149Z,92.20
2019-02-20T20:15:40.403Z,92.20
2019-02-20T20:18:50.933Z,92.30
2019-02-20T20:21:35.069Z,92.30
2019-02-20T20:24:57.756Z,92.40
2019-02-20T20:28:11.424Z,92.50
2019-02-20T20:31:04.017Z,92.20
2019-02-20T20:34:04.109Z,92.20
2019-02-20T20:37:04.303Z,92.20
2019-02-20T20:40:01.975Z,92.30
2019-02-20T20:43:09.129Z,92.30
2019-02-20T20:46:21.513Z,92.20
2019-02-20T20:49:19.105Z,92.20
2019-02-20T20:52:34.940Z,92.00
2019-02-20T20:55:44.163Z,92.10
2019-02-20T20:58:49.876Z,92.00
2019-02-20T21:01:42.543Z,92.20
2019-02-20T21:04:42.442Z,92.30
2019-02-20T21:07:35.490Z,92.10
2019-02-20T21:10:46.629Z,92.30
2019-02-20T21:14:07.347Z,92.40
2019-02-20T21:17:36.395Z,92.10
2019-02-20T21:20:51.752Z,92.00
2019-02-20T21:24:05.297Z,91.70
2019-02-20T21:26:55.750Z,91.70
2019-02-20T21:30:05.773Z,91.70
2019-02-20T21:33:19.065Z,92.00
2019-02-20T21:36:09.925Z,91.70
2019-02-20T21:38:48.925Z,91.50
2019-02-20T21:41:37.625Z,91.40
2019-02-20T21:44:31.235Z,91.20
2019-02-20T21:47:36.192Z,91.00
2019-02-20T21:50:40.245Z,91.10
2019-02-20T21:53:40.534Z,91.10
2019-02-20T21:56:23.798Z,90.70
2019-02-20T21:59:43.454Z,90.80
2019-02-20T22:03:15.282Z,90.40
2019-02-20T22:06:31.984Z,90.40
2019-02-20T22:09:32.565Z,90.30
2019-02-20T22:12:50.701Z,90.50
2019-02-20T22:15:46.965Z,89.30
2019-02-20T22:18:50.899Z,89.40
2019-02-20T22:22:03.010Z,89.50
2019-02-20T22:25:03.833Z,89.30
2019-02-20T22:27:44.520Z,88.10
2019-02-20T22:31:02.909Z,87.60
2019-02-20T22:34:12.906Z,87.50
2019-02-20T22:37:18.624Z,87.40
2019-02-20T22:40:20.696Z,87.00
2019-02-20T22:43:37.105Z,87.70
2019-02-20T22:46:17.327Z,88.40
2019-02-20T22:49:45.959Z,88.60
2019-02-20T22:52:54.868Z,89.20
2019-02-20T22:56:05.283Z,89.30
2019-02-20T22:59:02.785Z,89.30
2019-02-20T23:02:02.320Z,89.10
2019-02-20T23:05:20.841Z,89.70
2019-02-20T23:08:03.553Z,89.80
2019-02-20T23:11:26.215Z,90.20
2019-02-20T23:14:51.906Z,90.20
2019-02-20T23:17:21.402Z,90.40
2019-02-20T23:19:51.046Z,90.60
2019-02-20T23:22:20.579Z,90.70
2019-02-20T23:24:50.394Z,90.80
2019-02-20T23:27:20.147Z,90.90
2019-02-20T23:29:49.800Z,91.10
2019-02-20T23:32:19.304Z,91.40
2019-02-20T23:34:48.753Z,91.80
2019-02-20T23:37:18.447Z,91.90
2019-02-20T23:39:47.928Z,92.20
2019-02-20T23:42:17.469Z,92.50
2019-02-20T23:44:46.951Z,92.90
2019-02-20T23:47:16.446Z,93.10
2019-02-20T23:49:45.969Z,93.60
2019-02-20T23:52:15.773Z,93.80
2019-02-20T23:54:45.221Z,93.90
2019-02-20T23:57:14.744Z,94.30
2019-02-20T23:59:44.487Z,94.30
